sensor_id;sensor_type;location;lat;lon;timestamp;pressure;altitude;pressure_sealevel;temperature;humidity
77263;BME280;66373;52.334;4.806;2024-01-27T00:00:31;103335.94;;;18.37;52.35
77263;BME280;66373;52.334;4.806;2024-01-27T00:02:58;103334.19;;;18.36;52.61
77263;BME280;66373;52.334;4.806;2024-01-27T00:05:25;103335.06;;;18.37;52.65
77263;BME280;66373;52.334;4.806;2024-01-27T00:07:52;103330.75;;;18.37;52.19
77263;BME280;66373;52.334;4.806;2024-01-27T00:10:21;103329.88;;;18.37;52.39
77263;BME280;66373;52.334;4.806;2024-01-27T00:12:48;103325.41;;;18.31;52.34
77263;BME280;66373;52.334;4.806;2024-01-27T00:15:15;103327.22;;;18.35;52.24
77263;BME280;66373;52.334;4.806;2024-01-27T00:17:42;103328.94;;;18.33;52.21
77263;BME280;66373;52.334;4.806;2024-01-27T00:20:10;103328.06;;;18.34;52.19
77263;BME280;66373;52.334;4.806;2024-01-27T00:22:37;103328.06;;;18.34;52.09
77263;BME280;66373;52.334;4.806;2024-01-27T00:25:06;103327.19;;;18.32;52.27
77263;BME280;66373;52.334;4.806;2024-01-27T00:27:34;103321.97;;;18.32;52.16
77263;BME280;66373;52.334;4.806;2024-01-27T00:30:02;103323.72;;;18.33;51.79
77263;BME280;66373;52.334;4.806;2024-01-27T00:32:30;103319.31;;;18.29;51.98
77263;BME280;66373;52.334;4.806;2024-01-27T00:34:59;103331.53;;;18.33;52.15
77263;BME280;66373;52.334;4.806;2024-01-27T00:37:26;103335.84;;;18.31;51.77
77263;BME280;66373;52.334;4.806;2024-01-27T00:39:54;103327.13;;;18.29;52.15
77263;BME280;66373;52.334;4.806;2024-01-27T00:42:21;103334.09;;;18.30;52.00
77263;BME280;66373;52.334;4.806;2024-01-27T00:44:51;103336.69;;;18.30;51.96
77263;BME280;66373;52.334;4.806;2024-01-27T00:47:18;103330.59;;;18.29;51.78
77263;BME280;66373;52.334;4.806;2024-01-27T00:49:45;103328.88;;;18.30;51.72
77263;BME280;66373;52.334;4.806;2024-01-27T00:52:13;103330.56;;;18.28;51.67
77263;BME280;66373;52.334;4.806;2024-01-27T00:54:41;103332.28;;;18.26;51.99
77263;BME280;66373;52.334;4.806;2024-01-27T00:57:08;103334.09;;;18.30;51.59
77263;BME280;66373;52.334;4.806;2024-01-27T00:59:35;103346.22;;;18.29;51.72
77263;BME280;66373;52.334;4.806;2024-01-27T01:02:04;103335.78;;;18.28;51.83
77263;BME280;66373;52.334;4.806;2024-01-27T01:04:31;103336.66;;;18.28;51.75
77263;BME280;66373;52.334;4.806;2024-01-27T01:06:58;103327.13;;;18.29;51.53
77263;BME280;66373;52.334;4.806;2024-01-27T01:09:25;103335.78;;;18.28;51.38
77263;BME280;66373;52.334;4.806;2024-01-27T01:11:53;103328.84;;;18.28;51.39
77263;BME280;66373;52.334;4.806;2024-01-27T01:14:20;103334.03;;;18.27;51.73
77263;BME280;66373;52.334;4.806;2024-01-27T01:16:48;103332.31;;;18.27;51.44
77263;BME280;66373;52.334;4.806;2024-01-27T01:19:17;103332.31;;;18.27;51.52
77263;BME280;66373;52.334;4.806;2024-01-27T01:21:44;103334.03;;;18.27;51.37
77263;BME280;66373;52.334;4.806;2024-01-27T01:24:11;103341.84;;;18.27;51.48
77263;BME280;66373;52.334;4.806;2024-01-27T01:26:39;103341.81;;;18.25;51.48
77263;BME280;66373;52.334;4.806;2024-01-27T01:29:06;103346.16;;;18.25;51.34
77263;BME280;66373;52.334;4.806;2024-01-27T01:31:33;103336.56;;;18.24;51.59
77263;BME280;66373;52.334;4.806;2024-01-27T01:34:00;103335.72;;;18.25;51.61
77263;BME280;66373;52.334;4.806;2024-01-27T01:36:29;103334.84;;;18.24;51.55
77263;BME280;66373;52.334;4.806;2024-01-27T01:38:56;103340.94;;;18.25;51.50
77263;BME280;66373;52.334;4.806;2024-01-27T01:41:23;103335.66;;;18.22;51.33
77263;BME280;66373;52.334;4.806;2024-01-27T01:43:50;103330.50;;;18.25;51.47
77263;BME280;66373;52.334;4.806;2024-01-27T01:46:17;103332.22;;;18.23;51.59
77263;BME280;66373;52.334;4.806;2024-01-27T01:48:45;103341.81;;;18.25;51.13
77263;BME280;66373;52.334;4.806;2024-01-27T01:51:12;103347.84;;;18.23;51.50
77263;BME280;66373;52.334;4.806;2024-01-27T01:53:42;103349.56;;;18.22;51.27
77263;BME280;66373;52.334;4.806;2024-01-27T01:56:09;103339.94;;;18.17;51.16
77263;BME280;66373;52.334;4.806;2024-01-27T01:58:37;103350.41;;;18.21;51.28
77263;BME280;66373;52.334;4.806;2024-01-27T02:01:04;103353.03;;;18.21;51.38
77263;BME280;66373;52.334;4.806;2024-01-27T02:03:31;103364.28;;;18.20;51.35
77263;BME280;66373;52.334;4.806;2024-01-27T02:05:58;103366.91;;;18.19;51.09
77263;BME280;66373;52.334;4.806;2024-01-27T02:08:25;103353.00;;;18.20;51.11
77263;BME280;66373;52.334;4.806;2024-01-27T02:10:54;103343.44;;;18.17;51.09
77263;BME280;66373;52.334;4.806;2024-01-27T02:13:23;103345.19;;;18.18;51.07
77263;BME280;66373;52.334;4.806;2024-01-27T02:15:52;103356.47;;;18.19;51.18
77263;BME280;66373;52.334;4.806;2024-01-27T02:18:19;103354.72;;;18.18;51.35
77263;BME280;66373;52.334;4.806;2024-01-27T02:20:47;103354.72;;;18.18;51.18
77263;BME280;66373;52.334;4.806;2024-01-27T02:23:14;103346.06;;;18.19;51.07
77263;BME280;66373;52.334;4.806;2024-01-27T02:25:42;103336.47;;;18.16;51.03
77263;BME280;66373;52.334;4.806;2024-01-27T02:28:10;103357.31;;;18.16;51.13
77263;BME280;66373;52.334;4.806;2024-01-27T02:30:38;103361.63;;;18.16;51.02
77263;BME280;66373;52.334;4.806;2024-01-27T02:33:05;103362.50;;;18.16;51.37
77263;BME280;66373;52.334;4.806;2024-01-27T02:35:32;103365.09;;;18.15;51.05
77263;BME280;66373;52.334;4.806;2024-01-27T02:38:00;103364.22;;;18.14;50.98
77263;BME280;66373;52.334;4.806;2024-01-27T02:40:27;103367.69;;;18.15;50.93
77263;BME280;66373;52.334;4.806;2024-01-27T02:42:55;103352.91;;;18.14;50.94
77263;BME280;66373;52.334;4.806;2024-01-27T02:45:23;103357.25;;;18.13;51.10
77263;BME280;66373;52.334;4.806;2024-01-27T02:47:50;103362.47;;;18.13;51.11
77263;BME280;66373;52.334;4.806;2024-01-27T02:50:17;103361.56;;;18.13;51.00
77263;BME280;66373;52.334;4.806;2024-01-27T02:52:44;103363.34;;;18.14;50.96
77263;BME280;66373;52.334;4.806;2024-01-27T02:55:12;103352.03;;;18.13;51.11
77263;BME280;66373;52.334;4.806;2024-01-27T02:57:40;103361.56;;;18.13;51.09
77263;BME280;66373;52.334;4.806;2024-01-27T03:00:10;103356.34;;;18.11;51.22
77263;BME280;66373;52.334;4.806;2024-01-27T03:02:37;103358.06;;;18.11;50.99
77263;BME280;66373;52.334;4.806;2024-01-27T03:05:05;103359.81;;;18.12;51.29
77263;BME280;66373;52.334;4.806;2024-01-27T03:07:34;103339.78;;;18.08;51.18
77263;BME280;66373;52.334;4.806;2024-01-27T03:10:01;103336.28;;;18.07;50.85
77263;BME280;66373;52.334;4.806;2024-01-27T03:12:29;103349.41;;;18.12;50.98
77263;BME280;66373;52.334;4.806;2024-01-27T03:14:56;103337.22;;;18.11;50.85
77263;BME280;66373;52.334;4.806;2024-01-27T03:17:24;103351.97;;;18.10;51.30
77263;BME280;66373;52.334;4.806;2024-01-27T03:19:52;103351.09;;;18.10;51.16
77263;BME280;66373;52.334;4.806;2024-01-27T03:22:19;103344.13;;;18.09;51.33
77263;BME280;66373;52.334;4.806;2024-01-27T03:24:46;103339.78;;;18.09;51.03
77263;BME280;66373;52.334;4.806;2024-01-27T03:27:13;103349.22;;;18.03;50.89
77263;BME280;66373;52.334;4.806;2024-01-27T03:29:40;103355.41;;;18.08;51.12
77263;BME280;66373;52.334;4.806;2024-01-27T03:32:07;103353.66;;;18.08;51.25
77263;BME280;66373;52.334;4.806;2024-01-27T03:34:37;103349.28;;;18.06;51.23
77263;BME280;66373;52.334;4.806;2024-01-27T03:37:08;103354.50;;;18.06;51.15
77263;BME280;66373;52.334;4.806;2024-01-27T03:39:35;103360.56;;;18.06;51.10
77263;BME280;66373;52.334;4.806;2024-01-27T03:42:03;103371.88;;;18.07;51.03
77263;BME280;66373;52.334;4.806;2024-01-27T03:44:30;103371.81;;;18.04;51.07
77263;BME280;66373;52.334;4.806;2024-01-27T03:46:57;103366.66;;;18.07;51.17
77263;BME280;66373;52.334;4.806;2024-01-27T03:49:24;103370.06;;;18.03;50.95
77263;BME280;66373;52.334;4.806;2024-01-27T03:51:53;103358.75;;;18.02;51.12
77263;BME280;66373;52.334;4.806;2024-01-27T03:54:20;103367.44;;;18.03;50.79
77263;BME280;66373;52.334;4.806;2024-01-27T03:56:47;103377.03;;;18.04;51.11
77263;BME280;66373;52.334;4.806;2024-01-27T03:59:14;103363.13;;;18.03;50.98
77263;BME280;66373;52.334;4.806;2024-01-27T04:01:42;103363.97;;;18.02;51.06
77263;BME280;66373;52.334;4.806;2024-01-27T04:04:09;103366.53;;;18.01;50.88
77263;BME280;66373;52.334;4.806;2024-01-27T04:06:37;103359.56;;;18.00;50.86
77263;BME280;66373;52.334;4.806;2024-01-27T04:09:06;103362.22;;;18.01;51.08
77263;BME280;66373;52.334;4.806;2024-01-27T04:11:35;103368.28;;;18.02;50.74
77263;BME280;66373;52.334;4.806;2024-01-27T04:14:03;103356.13;;;18.01;51.02
77263;BME280;66373;52.334;4.806;2024-01-27T04:16:30;103366.53;;;18.01;50.96
77263;BME280;66373;52.334;4.806;2024-01-27T04:18:58;103357.81;;;17.98;50.80
77263;BME280;66373;52.334;4.806;2024-01-27T04:21:25;103363.88;;;17.97;50.98
77263;BME280;66373;52.334;4.806;2024-01-27T04:23:52;103367.31;;;17.96;50.71
77263;BME280;66373;52.334;4.806;2024-01-27T04:26:21;103373.38;;;17.95;50.80
77263;BME280;66373;52.334;4.806;2024-01-27T04:28:48;103367.28;;;17.95;51.08
77263;BME280;66373;52.334;4.806;2024-01-27T04:31:15;103368.16;;;17.95;50.71
77263;BME280;66373;52.334;4.806;2024-01-27T04:33:42;103364.66;;;17.93;50.83
77263;BME280;66373;52.334;4.806;2024-01-27T04:36:10;103350.50;;;17.79;50.94
77263;BME280;66373;52.334;4.806;2024-01-27T04:38:37;103371.63;;;17.94;50.94
77263;BME280;66373;52.334;4.806;2024-01-27T04:41:04;103371.59;;;17.93;51.01
77263;BME280;66373;52.334;4.806;2024-01-27T04:43:33;103375.03;;;17.90;50.83
77263;BME280;66373;52.334;4.806;2024-01-27T04:46:00;103380.25;;;17.90;50.65
77263;BME280;66373;52.334;4.806;2024-01-27T04:48:27;103376.81;;;17.91;50.87
77263;BME280;66373;52.334;4.806;2024-01-27T04:50:55;103379.38;;;17.90;50.75
77263;BME280;66373;52.334;4.806;2024-01-27T04:53:22;103375.03;;;17.90;50.73
77263;BME280;66373;52.334;4.806;2024-01-27T04:55:49;103362.00;;;17.89;50.80
77263;BME280;66373;52.334;4.806;2024-01-27T04:58:16;103375.00;;;17.89;50.85
77263;BME280;66373;52.334;4.806;2024-01-27T05:00:45;103368.94;;;17.88;50.69
77263;BME280;66373;52.334;4.806;2024-01-27T05:03:12;103369.78;;;17.87;50.76
77263;BME280;66373;52.334;4.806;2024-01-27T05:05:41;103365.41;;;17.86;50.81
77263;BME280;66373;52.334;4.806;2024-01-27T05:08:08;103365.44;;;17.88;50.80
77263;BME280;66373;52.334;4.806;2024-01-27T05:10:36;103369.78;;;17.87;50.88
77263;BME280;66373;52.334;4.806;2024-01-27T05:13:03;103368.88;;;17.85;50.68
77263;BME280;66373;52.334;4.806;2024-01-27T05:15:31;103359.28;;;17.84;50.72
77263;BME280;66373;52.334;4.806;2024-01-27T05:18:00;103365.34;;;17.83;50.84
77263;BME280;66373;52.334;4.806;2024-01-27T05:20:27;103365.38;;;17.85;50.91
77263;BME280;66373;52.334;4.806;2024-01-27T05:22:54;103374.91;;;17.84;50.65
77263;BME280;66373;52.334;4.806;2024-01-27T05:25:22;103367.94;;;17.83;50.71
77263;BME280;66373;52.334;4.806;2024-01-27T05:27:49;103372.28;;;17.83;50.76
77263;BME280;66373;52.334;4.806;2024-01-27T05:30:16;103375.72;;;17.82;50.75
77263;BME280;66373;52.334;4.806;2024-01-27T05:32:44;103380.94;;;17.82;50.64
77263;BME280;66373;52.334;4.806;2024-01-27T05:35:12;103380.91;;;17.80;51.00
77263;BME280;66373;52.334;4.806;2024-01-27T05:37:40;103389.59;;;17.81;51.07
77263;BME280;66373;52.334;4.806;2024-01-27T05:40:08;103382.66;;;17.81;50.90
77263;BME280;66373;52.334;4.806;2024-01-27T05:42:36;103367.88;;;17.80;51.03
77263;BME280;66373;52.334;4.806;2024-01-27T05:45:07;103370.50;;;17.80;51.06
77263;BME280;66373;52.334;4.806;2024-01-27T05:47:34;103366.13;;;17.79;50.96
77263;BME280;66373;52.334;4.806;2024-01-27T05:50:02;103361.75;;;17.78;50.99
77263;BME280;66373;52.334;4.806;2024-01-27T05:52:31;103354.84;;;17.79;50.95
77263;BME280;66373;52.334;4.806;2024-01-27T05:54:58;103356.50;;;17.75;51.16
77263;BME280;66373;52.334;4.806;2024-01-27T05:57:26;103357.41;;;17.77;51.07
77263;BME280;66373;52.334;4.806;2024-01-27T05:59:53;103366.03;;;17.75;50.98
77263;BME280;66373;52.334;4.806;2024-01-27T06:02:20;103360.84;;;17.76;51.16
77263;BME280;66373;52.334;4.806;2024-01-27T06:04:47;103365.22;;;17.77;51.01
77263;BME280;66373;52.334;4.806;2024-01-27T06:07:15;103366.06;;;17.76;50.99
77263;BME280;66373;52.334;4.806;2024-01-27T06:09:43;103378.19;;;17.76;50.88
77263;BME280;66373;52.334;4.806;2024-01-27T06:12:10;103377.31;;;17.75;50.98
77263;BME280;66373;52.334;4.806;2024-01-27T06:14:37;103372.97;;;17.74;51.13
77263;BME280;66373;52.334;4.806;2024-01-27T06:17:05;103379.94;;;17.75;50.91
77263;BME280;66373;52.334;4.806;2024-01-27T06:19:32;103372.06;;;17.72;50.93
77263;BME280;66373;52.334;4.806;2024-01-27T06:22:00;103379.06;;;17.75;51.19
77263;BME280;66373;52.334;4.806;2024-01-27T06:24:28;103376.41;;;17.73;51.05
77263;BME280;66373;52.334;4.806;2024-01-27T06:26:57;103368.59;;;17.73;50.92
77263;BME280;66373;52.334;4.806;2024-01-27T06:29:24;103360.78;;;17.73;50.86
77263;BME280;66373;52.334;4.806;2024-01-27T06:31:52;103366.84;;;17.72;51.24
77263;BME280;66373;52.334;4.806;2024-01-27T06:34:19;103366.81;;;17.71;51.24
77263;BME280;66373;52.334;4.806;2024-01-27T06:36:47;103378.09;;;17.71;51.06
77263;BME280;66373;52.334;4.806;2024-01-27T06:39:14;103385.06;;;17.72;50.95
77263;BME280;66373;52.334;4.806;2024-01-27T06:41:41;103367.63;;;17.68;51.29
77263;BME280;66373;52.334;4.806;2024-01-27T06:44:10;103378.94;;;17.70;51.39
77263;BME280;66373;52.334;4.806;2024-01-27T06:46:37;103374.59;;;17.69;51.46
77263;BME280;66373;52.334;4.806;2024-01-27T06:49:04;103376.34;;;17.70;51.18
77263;BME280;66373;52.334;4.806;2024-01-27T06:51:31;103379.81;;;17.71;51.30
77263;BME280;66373;52.334;4.806;2024-01-27T06:53:59;103383.25;;;17.68;51.55
77263;BME280;66373;52.334;4.806;2024-01-27T06:56:26;103372.81;;;17.67;51.64
77263;BME280;66373;52.334;4.806;2024-01-27T06:58:53;103384.97;;;17.68;51.94
77263;BME280;66373;52.334;4.806;2024-01-27T07:01:22;103384.03;;;17.64;51.82
77263;BME280;66373;52.334;4.806;2024-01-27T07:03:49;103373.69;;;17.66;51.97
77263;BME280;66373;52.334;4.806;2024-01-27T07:06:16;103379.75;;;17.68;52.11
77263;BME280;66373;52.334;4.806;2024-01-27T07:08:43;103380.63;;;17.68;52.29
77263;BME280;66373;52.334;4.806;2024-01-27T07:11:10;103373.56;;;17.62;52.32
77263;BME280;66373;52.334;4.806;2024-01-27T07:13:38;103384.97;;;17.68;52.09
77263;BME280;66373;52.334;4.806;2024-01-27T07:16:05;103384.09;;;17.66;52.43
77263;BME280;66373;52.334;4.806;2024-01-27T07:18:34;103371.75;;;17.58;52.45
77263;BME280;66373;52.334;4.806;2024-01-27T07:21:02;103392.75;;;17.65;52.49
77263;BME280;66373;52.334;4.806;2024-01-27T07:23:29;103384.97;;;17.66;52.52
77263;BME280;66373;52.334;4.806;2024-01-27T07:25:57;103377.06;;;17.63;52.49
77263;BME280;66373;52.334;4.806;2024-01-27T07:28:29;103383.22;;;17.65;52.39
77263;BME280;66373;52.334;4.806;2024-01-27T07:30:56;103384.97;;;17.66;52.53
77263;BME280;66373;52.334;4.806;2024-01-27T07:33:23;103383.22;;;17.65;52.26
77263;BME280;66373;52.334;4.806;2024-01-27T07:35:52;103383.22;;;17.65;52.31
77263;BME280;66373;52.334;4.806;2024-01-27T07:38:19;103371.81;;;17.61;52.48
77263;BME280;66373;52.334;4.806;2024-01-27T07:40:46;103371.00;;;17.64;52.49
77263;BME280;66373;52.334;4.806;2024-01-27T07:43:14;103370.19;;;17.65;52.64
77263;BME280;66373;52.334;4.806;2024-01-27T07:45:41;103381.34;;;17.61;52.73
77263;BME280;66373;52.334;4.806;2024-01-27T07:48:10;103384.97;;;17.66;52.43
77263;BME280;66373;52.334;4.806;2024-01-27T07:50:38;103397.03;;;17.64;52.46
77263;BME280;66373;52.334;4.806;2024-01-27T07:53:06;103402.25;;;17.64;52.72
77263;BME280;66373;52.334;4.806;2024-01-27T07:55:33;103410.03;;;17.64;52.47
77263;BME280;66373;52.334;4.806;2024-01-27T07:58:01;103411.78;;;17.63;52.77
77263;BME280;66373;52.334;4.806;2024-01-27T08:00:28;103411.78;;;17.63;52.64
77263;BME280;66373;52.334;4.806;2024-01-27T08:02:56;103409.25;;;17.65;52.75
77263;BME280;66373;52.334;4.806;2024-01-27T08:05:24;103411.84;;;17.65;52.43
77263;BME280;66373;52.334;4.806;2024-01-27T08:07:51;103403.16;;;17.65;52.57
77263;BME280;66373;52.334;4.806;2024-01-27T08:10:20;103410.13;;;17.66;52.40
77263;BME280;66373;52.334;4.806;2024-01-27T08:12:48;103392.75;;;17.65;52.78
77263;BME280;66373;52.334;4.806;2024-01-27T08:15:15;103403.19;;;17.66;52.58
77263;BME280;66373;52.334;4.806;2024-01-27T08:17:42;103405.78;;;17.66;52.50
77263;BME280;66373;52.334;4.806;2024-01-27T08:20:10;103404.03;;;17.65;52.53
77263;BME280;66373;52.334;4.806;2024-01-27T08:22:37;103411.00;;;17.66;52.62
77263;BME280;66373;52.334;4.806;2024-01-27T08:25:06;103408.41;;;17.66;52.71
77263;BME280;66373;52.334;4.806;2024-01-27T08:27:35;103395.38;;;17.68;52.77
77263;BME280;66373;52.334;4.806;2024-01-27T08:30:02;103397.94;;;17.65;52.72
77263;BME280;66373;52.334;4.806;2024-01-27T08:32:29;103397.09;;;17.67;52.84
77263;BME280;66373;52.334;4.806;2024-01-27T08:34:57;103399.72;;;17.67;52.60
77263;BME280;66373;52.334;4.806;2024-01-27T08:37:24;103405.81;;;17.69;52.61
77263;BME280;66373;52.334;4.806;2024-01-27T08:39:51;103412.72;;;17.67;52.77
77263;BME280;66373;52.334;4.806;2024-01-27T08:42:19;103415.34;;;17.69;52.80
77263;BME280;66373;52.334;4.806;2024-01-27T08:44:47;103414.47;;;17.68;52.88
77263;BME280;66373;52.334;4.806;2024-01-27T08:47:15;103414.47;;;17.68;52.93
77263;BME280;66373;52.334;4.806;2024-01-27T08:49:45;103412.75;;;17.69;52.99
77263;BME280;66373;52.334;4.806;2024-01-27T08:52:16;103420.56;;;17.69;52.88
77263;BME280;66373;52.334;4.806;2024-01-27T08:54:44;103423.19;;;17.70;52.66
77263;BME280;66373;52.334;4.806;2024-01-27T08:57:12;103416.22;;;17.69;52.70
77263;BME280;66373;52.334;4.806;2024-01-27T08:59:39;103418.81;;;17.68;52.79
77263;BME280;66373;52.334;4.806;2024-01-27T09:02:08;103412.78;;;17.70;52.93
77263;BME280;66373;52.334;4.806;2024-01-27T09:04:35;103418.00;;;17.70;52.84
77263;BME280;66373;52.334;4.806;2024-01-27T09:07:03;103413.66;;;17.71;52.80
77263;BME280;66373;52.334;4.806;2024-01-27T09:09:30;103423.22;;;17.72;52.77
77263;BME280;66373;52.334;4.806;2024-01-27T09:11:57;103422.34;;;17.71;52.82
77263;BME280;66373;52.334;4.806;2024-01-27T09:14:24;103417.97;;;17.69;52.71
77263;BME280;66373;52.334;4.806;2024-01-27T09:16:52;103416.22;;;17.69;52.67
77263;BME280;66373;52.334;4.806;2024-01-27T09:19:20;103424.97;;;17.71;52.78
77263;BME280;66373;52.334;4.806;2024-01-27T09:21:47;103423.19;;;17.70;52.61
77263;BME280;66373;52.334;4.806;2024-01-27T09:24:15;103425.84;;;17.72;52.70
77263;BME280;66373;52.334;4.806;2024-01-27T09:26:45;103437.13;;;17.72;52.77
77263;BME280;66373;52.334;4.806;2024-01-27T09:29:12;103435.38;;;17.71;52.85
77263;BME280;66373;52.334;4.806;2024-01-27T09:31:39;103442.34;;;17.72;52.84
77263;BME280;66373;52.334;4.806;2024-01-27T09:34:06;103452.75;;;17.72;52.58
77263;BME280;66373;52.334;4.806;2024-01-27T09:36:35;103461.41;;;17.71;52.79
77263;BME280;66373;52.334;4.806;2024-01-27T09:39:02;103460.50;;;17.69;52.51
77263;BME280;66373;52.334;4.806;2024-01-27T09:41:31;103466.69;;;17.74;52.48
77263;BME280;66373;52.334;4.806;2024-01-27T09:44:01;103467.56;;;17.75;52.56
77263;BME280;66373;52.334;4.806;2024-01-27T09:46:29;103470.97;;;17.72;52.75
77263;BME280;66373;52.334;4.806;2024-01-27T09:48:57;103455.25;;;17.68;52.45
77263;BME280;66373;52.334;4.806;2024-01-27T09:51:25;103465.81;;;17.74;52.57
77263;BME280;66373;52.334;4.806;2024-01-27T09:53:54;103463.16;;;17.72;52.69
77263;BME280;66373;52.334;4.806;2024-01-27T09:56:22;103470.09;;;17.72;52.69
77263;BME280;66373;52.334;4.806;2024-01-27T09:58:50;103463.16;;;17.72;52.65
77263;BME280;66373;52.334;4.806;2024-01-27T10:01:21;103466.63;;;17.71;52.61
77263;BME280;66373;52.334;4.806;2024-01-27T10:03:51;103475.34;;;17.73;52.56
77263;BME280;66373;52.334;4.806;2024-01-27T10:06:21;103471.00;;;17.74;52.43
77263;BME280;66373;52.334;4.806;2024-01-27T10:08:54;103478.00;;;17.76;52.50
77263;BME280;66373;52.334;4.806;2024-01-27T10:11:21;103478.84;;;17.75;52.84
77263;BME280;66373;52.334;4.806;2024-01-27T10:13:54;103489.31;;;17.77;52.75
77263;BME280;66373;52.334;4.806;2024-01-27T10:16:21;103488.47;;;17.78;52.63
77263;BME280;66373;52.334;4.806;2024-01-27T10:18:59;103498.00;;;17.77;52.52
77263;BME280;66373;52.334;4.806;2024-01-27T10:21:27;103488.44;;;17.76;52.44
77263;BME280;66373;52.334;4.806;2024-01-27T10:23:55;103487.56;;;17.77;52.52
77263;BME280;66373;52.334;4.806;2024-01-27T10:26:23;103493.63;;;17.76;52.67
77263;BME280;66373;52.334;4.806;2024-01-27T10:28:54;103490.19;;;17.77;52.48
77263;BME280;66373;52.334;4.806;2024-01-27T10:31:26;103484.06;;;17.75;52.55
77263;BME280;66373;52.334;4.806;2024-01-27T10:33:54;103485.81;;;17.76;52.41
77263;BME280;66373;52.334;4.806;2024-01-27T10:36:22;103485.81;;;17.76;52.51
77263;BME280;66373;52.334;4.806;2024-01-27T10:38:49;103478.00;;;17.76;52.63
77263;BME280;66373;52.334;4.806;2024-01-27T10:41:22;103474.56;;;17.77;52.57
77263;BME280;66373;52.334;4.806;2024-01-27T10:43:50;103477.94;;;17.73;52.53
77263;BME280;66373;52.334;4.806;2024-01-27T10:46:21;103479.78;;;17.77;52.44
77263;BME280;66373;52.334;4.806;2024-01-27T10:48:50;103480.63;;;17.76;52.58
77263;BME280;66373;52.334;4.806;2024-01-27T10:51:23;103483.16;;;17.73;52.69
77263;BME280;66373;52.334;4.806;2024-01-27T10:53:55;103480.69;;;17.79;52.40
77263;BME280;66373;52.334;4.806;2024-01-27T10:56:27;103478.09;;;17.79;52.42
77263;BME280;66373;52.334;4.806;2024-01-27T10:58:57;103475.47;;;17.79;52.14
77263;BME280;66373;52.334;4.806;2024-01-27T11:01:26;103477.16;;;17.77;52.16
77263;BME280;66373;52.334;4.806;2024-01-27T11:03:58;103472.00;;;17.79;52.31
77263;BME280;66373;52.334;4.806;2024-01-27T11:06:27;103478.88;;;17.77;52.31
77263;BME280;66373;52.334;4.806;2024-01-27T11:08:56;103474.56;;;17.77;52.17
77263;BME280;66373;52.334;4.806;2024-01-27T11:11:24;103484.13;;;17.78;52.42
77263;BME280;66373;52.334;4.806;2024-01-27T11:13:53;103481.56;;;17.80;52.35
77263;BME280;66373;52.334;4.806;2024-01-27T11:16:21;103483.25;;;17.78;52.26
77263;BME280;66373;52.334;4.806;2024-01-27T11:18:50;103484.13;;;17.78;52.48
77263;BME280;66373;52.334;4.806;2024-01-27T11:21:17;103475.38;;;17.75;52.48
77263;BME280;66373;52.334;4.806;2024-01-27T11:23:45;103477.16;;;17.77;52.86
77263;BME280;66373;52.334;4.806;2024-01-27T11:26:18;103470.28;;;17.79;52.98
77263;BME280;66373;52.334;4.806;2024-01-27T11:28:46;103479.78;;;17.77;53.03
77263;BME280;66373;52.334;4.806;2024-01-27T11:31:17;103478.97;;;17.80;53.29
77263;BME280;66373;52.334;4.806;2024-01-27T11:33:46;103477.22;;;17.80;53.22
77263;BME280;66373;52.334;4.806;2024-01-27T11:36:19;103466.81;;;17.80;53.41
77263;BME280;66373;52.334;4.806;2024-01-27T11:38:48;103463.31;;;17.78;53.19
77263;BME280;66373;52.334;4.806;2024-01-27T11:41:23;103465.06;;;17.79;53.34
77263;BME280;66373;52.334;4.806;2024-01-27T11:43:52;103473.78;;;17.81;53.36
77263;BME280;66373;52.334;4.806;2024-01-27T11:46:21;103468.59;;;17.81;53.36
77263;BME280;66373;52.334;4.806;2024-01-27T11:48:48;103461.63;;;17.80;53.08
77263;BME280;66373;52.334;4.806;2024-01-27T11:51:16;103459.91;;;17.82;53.03
77263;BME280;66373;52.334;4.806;2024-01-27T11:53:45;103466.00;;;17.83;53.04
77263;BME280;66373;52.334;4.806;2024-01-27T11:56:13;103454.72;;;17.82;53.03
77263;BME280;66373;52.334;4.806;2024-01-27T11:58:46;103455.56;;;17.81;53.09
77263;BME280;66373;52.334;4.806;2024-01-27T12:01:14;103446.91;;;17.82;53.20
77263;BME280;66373;52.334;4.806;2024-01-27T12:03:43;103437.34;;;17.81;53.09
77263;BME280;66373;52.334;4.806;2024-01-27T12:06:11;103437.34;;;17.81;53.11
77263;BME280;66373;52.334;4.806;2024-01-27T12:08:38;103432.13;;;17.81;53.11
77263;BME280;66373;52.334;4.806;2024-01-27T12:11:06;103438.25;;;17.83;53.02
77263;BME280;66373;52.334;4.806;2024-01-27T12:13:34;103446.13;;;17.86;53.12
77263;BME280;66373;52.334;4.806;2024-01-27T12:16:01;103431.34;;;17.85;52.98
77263;BME280;66373;52.334;4.806;2024-01-27T12:18:29;103447.00;;;17.87;53.01
77263;BME280;66373;52.334;4.806;2024-01-27T12:20:57;103443.50;;;17.85;53.11
77263;BME280;66373;52.334;4.806;2024-01-27T12:23:24;103424.31;;;17.81;53.12
77263;BME280;66373;52.334;4.806;2024-01-27T12:25:55;103457.50;;;17.90;53.11
77263;BME280;66373;52.334;4.806;2024-01-27T12:28:23;103443.59;;;17.89;53.11
77263;BME280;66373;52.334;4.806;2024-01-27T12:30:50;103446.19;;;17.89;52.82
77263;BME280;66373;52.334;4.806;2024-01-27T12:33:18;103434.94;;;17.90;53.06
77263;BME280;66373;52.334;4.806;2024-01-27T12:35:50;103444.50;;;17.91;53.03
77263;BME280;66373;52.334;4.806;2024-01-27T12:38:22;103442.78;;;17.93;53.00
77263;BME280;66373;52.334;4.806;2024-01-27T12:40:49;103449.75;;;17.94;53.00
77263;BME280;66373;52.334;4.806;2024-01-27T12:43:16;103438.50;;;17.97;52.88
77263;BME280;66373;52.334;4.806;2024-01-27T12:45:43;103428.13;;;17.98;52.99
77263;BME280;66373;52.334;4.806;2024-01-27T12:48:11;103418.56;;;17.97;52.91
77263;BME280;66373;52.334;4.806;2024-01-27T12:50:38;103429.03;;;18.01;52.75
77263;BME280;66373;52.334;4.806;2024-01-27T12:53:05;103439.47;;;18.01;52.84